sensor_id;sensor_type;location;lat;lon;timestamp;P1;durP1;ratioP1;P2;durP2;ratioP2
13611;SDS011;6877;51.436;6.774;2023-04-15T00:01:02;18.77;;;9.95;;
13611;SDS011;6877;51.436;6.774;2023-04-15T00:03:30;15.23;;;9.43;;
13611;SDS011;6877;51.436;6.774;2023-04-15T00:05:59;16.40;;;9.65;;
13611;SDS011;6877;51.436;6.774;2023-04-15T00:08:31;17.45;;;10.02;;
13611;SDS011;6877;51.436;6.774;2023-04-15T00:10:58;16.58;;;9.88;;
13611;SDS011;6877;51.436;6.774;2023-04-15T00:13:32;16.92;;;9.30;;
13611;SDS011;6877;51.436;6.774;2023-04-15T00:15:59;14.10;;;9.32;;
13611;SDS011;6877;51.436;6.774;2023-04-15T00:18:26;15.15;;;10.27;;
13611;SDS011;6877;51.436;6.774;2023-04-15T00:20:59;19.80;;;9.43;;
13611;SDS011;6877;51.436;6.774;2023-04-15T00:23:30;23.15;;;12.90;;
13611;SDS011;6877;51.436;6.774;2023-04-15T00:25:57;18.65;;;8.88;;
13611;SDS011;6877;51.436;6.774;2023-04-15T00:28:23;16.75;;;9.45;;
13611;SDS011;6877;51.436;6.774;2023-04-15T00:30:49;19.30;;;9.98;;
13611;SDS011;6877;51.436;6.774;2023-04-15T00:33:21;18.40;;;10.38;;
13611;SDS011;6877;51.436;6.774;2023-04-15T00:35:47;17.67;;;10.32;;
13611;SDS011;6877;51.436;6.774;2023-04-15T00:38:14;19.02;;;9.90;;
13611;SDS011;6877;51.436;6.774;2023-04-15T00:40:40;13.82;;;9.10;;
13611;SDS011;6877;51.436;6.774;2023-04-15T00:43:07;15.25;;;8.95;;
13611;SDS011;6877;51.436;6.774;2023-04-15T00:45:39;21.25;;;10.63;;
13611;SDS011;6877;51.436;6.774;2023-04-15T00:48:11;15.75;;;10.02;;
13611;SDS011;6877;51.436;6.774;2023-04-15T00:50:42;17.00;;;9.13;;
13611;SDS011;6877;51.436;6.774;2023-04-15T00:53:09;16.55;;;10.27;;
13611;SDS011;6877;51.436;6.774;2023-04-15T00:55:35;17.15;;;9.48;;
13611;SDS011;6877;51.436;6.774;2023-04-15T00:58:03;18.48;;;10.73;;
13611;SDS011;6877;51.436;6.774;2023-04-15T01:00:29;22.35;;;11.07;;
13611;SDS011;6877;51.436;6.774;2023-04-15T01:02:56;16.92;;;9.52;;
13611;SDS011;6877;51.436;6.774;2023-04-15T01:05:22;16.98;;;10.32;;
13611;SDS011;6877;51.436;6.774;2023-04-15T01:07:50;19.13;;;11.10;;
13611;SDS011;6877;51.436;6.774;2023-04-15T01:10:16;23.50;;;11.73;;
13611;SDS011;6877;51.436;6.774;2023-04-15T01:12:48;19.15;;;10.50;;
13611;SDS011;6877;51.436;6.774;2023-04-15T01:15:19;18.50;;;10.32;;
13611;SDS011;6877;51.436;6.774;2023-04-15T01:17:51;19.95;;;11.30;;
13611;SDS011;6877;51.436;6.774;2023-04-15T01:20:18;17.15;;;11.27;;
13611;SDS011;6877;51.436;6.774;2023-04-15T01:22:45;22.38;;;10.85;;
13611;SDS011;6877;51.436;6.774;2023-04-15T01:25:12;20.50;;;9.80;;
13611;SDS011;6877;51.436;6.774;2023-04-15T01:27:45;20.88;;;10.80;;
13611;SDS011;6877;51.436;6.774;2023-04-15T01:30:17;19.02;;;10.35;;
13611;SDS011;6877;51.436;6.774;2023-04-15T01:32:43;17.55;;;10.00;;
13611;SDS011;6877;51.436;6.774;2023-04-15T01:35:10;15.73;;;10.10;;
13611;SDS011;6877;51.436;6.774;2023-04-15T01:37:41;16.35;;;10.60;;
13611;SDS011;6877;51.436;6.774;2023-04-15T01:40:08;18.38;;;10.55;;
13611;SDS011;6877;51.436;6.774;2023-04-15T01:42:37;15.25;;;10.40;;
13611;SDS011;6877;51.436;6.774;2023-04-15T01:45:04;20.58;;;11.05;;
13611;SDS011;6877;51.436;6.774;2023-04-15T01:47:36;16.80;;;10.15;;
13611;SDS011;6877;51.436;6.774;2023-04-15T01:50:07;20.23;;;10.73;;
13611;SDS011;6877;51.436;6.774;2023-04-15T01:52:34;18.58;;;11.55;;
13611;SDS011;6877;51.436;6.774;2023-04-15T01:55:01;17.00;;;10.07;;
13611;SDS011;6877;51.436;6.774;2023-04-15T01:57:32;15.05;;;10.57;;
13611;SDS011;6877;51.436;6.774;2023-04-15T01:59:59;20.85;;;11.75;;
13611;SDS011;6877;51.436;6.774;2023-04-15T02:02:25;18.35;;;12.05;;
13611;SDS011;6877;51.436;6.774;2023-04-15T02:04:51;25.02;;;11.38;;
13611;SDS011;6877;51.436;6.774;2023-04-15T02:07:23;18.52;;;11.77;;
13611;SDS011;6877;51.436;6.774;2023-04-15T02:09:49;25.35;;;12.63;;
13611;SDS011;6877;51.436;6.774;2023-04-15T02:12:16;24.52;;;13.05;;
13611;SDS011;6877;51.436;6.774;2023-04-15T02:14:47;20.20;;;11.90;;
13611;SDS011;6877;51.436;6.774;2023-04-15T02:17:13;17.77;;;12.20;;
13611;SDS011;6877;51.436;6.774;2023-04-15T02:19:40;20.08;;;11.65;;
13611;SDS011;6877;51.436;6.774;2023-04-15T02:22:07;17.73;;;11.45;;
13611;SDS011;6877;51.436;6.774;2023-04-15T02:24:34;20.67;;;12.63;;
13611;SDS011;6877;51.436;6.774;2023-04-15T02:27:01;20.42;;;12.88;;
13611;SDS011;6877;51.436;6.774;2023-04-15T02:29:33;27.10;;;13.38;;
13611;SDS011;6877;51.436;6.774;2023-04-15T02:32:04;23.08;;;12.65;;
13611;SDS011;6877;51.436;6.774;2023-04-15T02:34:36;20.70;;;12.48;;
13611;SDS011;6877;51.436;6.774;2023-04-15T02:37:06;19.15;;;11.27;;
13611;SDS011;6877;51.436;6.774;2023-04-15T02:39:33;18.38;;;10.60;;
13611;SDS011;6877;51.436;6.774;2023-04-15T02:42:00;21.05;;;12.52;;
13611;SDS011;6877;51.436;6.774;2023-04-15T02:44:31;17.40;;;12.02;;
13611;SDS011;6877;51.436;6.774;2023-04-15T02:46:59;18.88;;;11.07;;
13611;SDS011;6877;51.436;6.774;2023-04-15T02:49:25;18.73;;;12.48;;
13611;SDS011;6877;51.436;6.774;2023-04-15T02:51:54;19.27;;;11.63;;
13611;SDS011;6877;51.436;6.774;2023-04-15T02:54:21;19.90;;;11.27;;
13611;SDS011;6877;51.436;6.774;2023-04-15T02:56:48;27.35;;;13.43;;
13611;SDS011;6877;51.436;6.774;2023-04-15T02:59:20;24.95;;;13.73;;
13611;SDS011;6877;51.436;6.774;2023-04-15T03:01:52;20.98;;;13.43;;
13611;SDS011;6877;51.436;6.774;2023-04-15T03:04:18;23.05;;;13.82;;
13611;SDS011;6877;51.436;6.774;2023-04-15T03:06:44;27.75;;;13.30;;
13611;SDS011;6877;51.436;6.774;2023-04-15T03:09:11;21.45;;;13.98;;
13611;SDS011;6877;51.436;6.774;2023-04-15T03:11:42;22.80;;;12.57;;
13611;SDS011;6877;51.436;6.774;2023-04-15T03:14:13;17.88;;;12.20;;
13611;SDS011;6877;51.436;6.774;2023-04-15T03:16:45;25.80;;;14.00;;
13611;SDS011;6877;51.436;6.774;2023-04-15T03:19:11;24.25;;;14.38;;
13611;SDS011;6877;51.436;6.774;2023-04-15T03:21:43;21.80;;;13.07;;
13611;SDS011;6877;51.436;6.774;2023-04-15T03:24:09;21.83;;;12.27;;
13611;SDS011;6877;51.436;6.774;2023-04-15T03:26:41;26.15;;;13.75;;
13611;SDS011;6877;51.436;6.774;2023-04-15T03:29:07;20.75;;;12.48;;
13611;SDS011;6877;51.436;6.774;2023-04-15T03:31:34;22.58;;;13.50;;
13611;SDS011;6877;51.436;6.774;2023-04-15T03:34:00;29.83;;;13.02;;
13611;SDS011;6877;51.436;6.774;2023-04-15T03:36:28;24.42;;;12.38;;
13611;SDS011;6877;51.436;6.774;2023-04-15T03:38:56;23.67;;;14.45;;
13611;SDS011;6877;51.436;6.774;2023-04-15T03:41:27;25.88;;;11.73;;
13611;SDS011;6877;51.436;6.774;2023-04-15T03:43:54;23.50;;;14.05;;
13611;SDS011;6877;51.436;6.774;2023-04-15T03:46:20;24.42;;;12.25;;
13611;SDS011;6877;51.436;6.774;2023-04-15T03:48:52;21.25;;;11.90;;
13611;SDS011;6877;51.436;6.774;2023-04-15T03:51:23;19.67;;;12.00;;
13611;SDS011;6877;51.436;6.774;2023-04-15T03:53:54;22.45;;;12.25;;
13611;SDS011;6877;51.436;6.774;2023-04-15T03:56:26;23.83;;;12.75;;
13611;SDS011;6877;51.436;6.774;2023-04-15T03:58:52;25.20;;;12.25;;
13611;SDS011;6877;51.436;6.774;2023-04-15T04:01:19;19.17;;;11.68;;
13611;SDS011;6877;51.436;6.774;2023-04-15T04:03:50;20.05;;;12.35;;
13611;SDS011;6877;51.436;6.774;2023-04-15T04:06:17;17.27;;;11.13;;
13611;SDS011;6877;51.436;6.774;2023-04-15T04:08:43;21.67;;;12.68;;
13611;SDS011;6877;51.436;6.774;2023-04-15T04:11:10;17.63;;;10.90;;
13611;SDS011;6877;51.436;6.774;2023-04-15T04:13:36;20.23;;;11.52;;
13611;SDS011;6877;51.436;6.774;2023-04-15T04:16:03;20.45;;;12.65;;
13611;SDS011;6877;51.436;6.774;2023-04-15T04:18:32;23.23;;;12.07;;
13611;SDS011;6877;51.436;6.774;2023-04-15T04:20:59;20.08;;;12.02;;
13611;SDS011;6877;51.436;6.774;2023-04-15T04:23:26;25.73;;;12.50;;
13611;SDS011;6877;51.436;6.774;2023-04-15T04:25:52;21.48;;;12.52;;
13611;SDS011;6877;51.436;6.774;2023-04-15T04:28:19;19.35;;;12.18;;
13611;SDS011;6877;51.436;6.774;2023-04-15T04:30:45;20.55;;;11.70;;
13611;SDS011;6877;51.436;6.774;2023-04-15T04:33:11;24.30;;;11.90;;
13611;SDS011;6877;51.436;6.774;2023-04-15T04:35:43;23.58;;;13.05;;
13611;SDS011;6877;51.436;6.774;2023-04-15T04:38:09;19.15;;;11.07;;
13611;SDS011;6877;51.436;6.774;2023-04-15T04:40:36;22.02;;;11.98;;
13611;SDS011;6877;51.436;6.774;2023-04-15T04:43:02;19.15;;;11.23;;
13611;SDS011;6877;51.436;6.774;2023-04-15T04:45:29;21.30;;;12.75;;
13611;SDS011;6877;51.436;6.774;2023-04-15T04:47:55;20.85;;;12.32;;
13611;SDS011;6877;51.436;6.774;2023-04-15T04:50:27;20.48;;;12.98;;
13611;SDS011;6877;51.436;6.774;2023-04-15T04:52:53;22.20;;;12.75;;
13611;SDS011;6877;51.436;6.774;2023-04-15T04:55:24;18.23;;;11.38;;
13611;SDS011;6877;51.436;6.774;2023-04-15T04:57:51;27.60;;;13.23;;
13611;SDS011;6877;51.436;6.774;2023-04-15T05:00:22;25.58;;;13.90;;
13611;SDS011;6877;51.436;6.774;2023-04-15T05:02:49;18.48;;;12.25;;
13611;SDS011;6877;51.436;6.774;2023-04-15T05:05:21;21.27;;;13.15;;
13611;SDS011;6877;51.436;6.774;2023-04-15T05:07:47;20.90;;;12.32;;
13611;SDS011;6877;51.436;6.774;2023-04-15T05:10:20;23.90;;;13.23;;
13611;SDS011;6877;51.436;6.774;2023-04-15T05:12:51;19.65;;;11.55;;
13611;SDS011;6877;51.436;6.774;2023-04-15T05:15:18;21.73;;;12.82;;
13611;SDS011;6877;51.436;6.774;2023-04-15T05:17:44;24.33;;;13.18;;
13611;SDS011;6877;51.436;6.774;2023-04-15T05:20:11;19.92;;;12.63;;
13611;SDS011;6877;51.436;6.774;2023-04-15T05:22:42;19.98;;;13.02;;
13611;SDS011;6877;51.436;6.774;2023-04-15T05:25:09;24.05;;;13.63;;
13611;SDS011;6877;51.436;6.774;2023-04-15T05:27:35;22.08;;;13.27;;
13611;SDS011;6877;51.436;6.774;2023-04-15T05:30:02;24.90;;;13.95;;
13611;SDS011;6877;51.436;6.774;2023-04-15T05:32:29;24.73;;;12.90;;
13611;SDS011;6877;51.436;6.774;2023-04-15T05:35:00;25.65;;;12.90;;
13611;SDS011;6877;51.436;6.774;2023-04-15T05:37:32;21.15;;;13.65;;
13611;SDS011;6877;51.436;6.774;2023-04-15T05:39:58;21.10;;;12.68;;
13611;SDS011;6877;51.436;6.774;2023-04-15T05:42:24;23.92;;;12.85;;
13611;SDS011;6877;51.436;6.774;2023-04-15T05:44:51;24.15;;;13.48;;
13611;SDS011;6877;51.436;6.774;2023-04-15T05:47:17;23.50;;;13.18;;
13611;SDS011;6877;51.436;6.774;2023-04-15T05:49:44;21.42;;;13.80;;
13611;SDS011;6877;51.436;6.774;2023-04-15T05:52:10;21.30;;;12.63;;
13611;SDS011;6877;51.436;6.774;2023-04-15T05:54:36;26.02;;;12.88;;
13611;SDS011;6877;51.436;6.774;2023-04-15T05:57:03;20.25;;;12.45;;
13611;SDS011;6877;51.436;6.774;2023-04-15T05:59:30;22.08;;;12.75;;
13611;SDS011;6877;51.436;6.774;2023-04-15T06:01:56;21.58;;;13.10;;
13611;SDS011;6877;51.436;6.774;2023-04-15T06:04:23;27.05;;;14.55;;
13611;SDS011;6877;51.436;6.774;2023-04-15T06:06:49;20.02;;;12.90;;
13611;SDS011;6877;51.436;6.774;2023-04-15T06:09:15;22.25;;;13.25;;
13611;SDS011;6877;51.436;6.774;2023-04-15T06:11:42;20.60;;;12.80;;
13611;SDS011;6877;51.436;6.774;2023-04-15T06:14:13;23.65;;;13.35;;
13611;SDS011;6877;51.436;6.774;2023-04-15T06:16:40;27.55;;;14.32;;
13611;SDS011;6877;51.436;6.774;2023-04-15T06:19:11;23.38;;;14.82;;
13611;SDS011;6877;51.436;6.774;2023-04-15T06:21:37;21.08;;;13.80;;
13611;SDS011;6877;51.436;6.774;2023-04-15T06:24:09;22.52;;;13.70;;
13611;SDS011;6877;51.436;6.774;2023-04-15T06:26:36;25.00;;;13.40;;
13611;SDS011;6877;51.436;6.774;2023-04-15T06:29:11;23.13;;;12.18;;
13611;SDS011;6877;51.436;6.774;2023-04-15T06:31:37;24.17;;;13.90;;
13611;SDS011;6877;51.436;6.774;2023-04-15T06:34:08;21.67;;;14.35;;
13611;SDS011;6877;51.436;6.774;2023-04-15T06:36:36;28.73;;;12.50;;
13611;SDS011;6877;51.436;6.774;2023-04-15T06:39:02;23.13;;;13.55;;
13611;SDS011;6877;51.436;6.774;2023-04-15T06:41:34;24.92;;;14.18;;
13611;SDS011;6877;51.436;6.774;2023-04-15T06:44:01;20.60;;;13.13;;
13611;SDS011;6877;51.436;6.774;2023-04-15T06:46:33;23.55;;;12.70;;
13611;SDS011;6877;51.436;6.774;2023-04-15T06:49:04;23.38;;;13.45;;
13611;SDS011;6877;51.436;6.774;2023-04-15T06:51:30;23.95;;;13.60;;
13611;SDS011;6877;51.436;6.774;2023-04-15T06:54:03;21.20;;;12.93;;
13611;SDS011;6877;51.436;6.774;2023-04-15T06:56:31;25.23;;;13.43;;
13611;SDS011;6877;51.436;6.774;2023-04-15T06:59:03;20.55;;;12.90;;
13611;SDS011;6877;51.436;6.774;2023-04-15T07:01:29;28.10;;;13.00;;
13611;SDS011;6877;51.436;6.774;2023-04-15T07:03:56;17.67;;;12.40;;
13611;SDS011;6877;51.436;6.774;2023-04-15T07:06:27;16.13;;;10.98;;
13611;SDS011;6877;51.436;6.774;2023-04-15T07:08:54;17.38;;;11.13;;
13611;SDS011;6877;51.436;6.774;2023-04-15T07:11:20;19.38;;;11.95;;
13611;SDS011;6877;51.436;6.774;2023-04-15T07:13:47;18.20;;;10.30;;
13611;SDS011;6877;51.436;6.774;2023-04-15T07:16:18;16.45;;;9.38;;
13611;SDS011;6877;51.436;6.774;2023-04-15T07:18:50;15.50;;;9.70;;
13611;SDS011;6877;51.436;6.774;2023-04-15T07:21:16;12.88;;;8.95;;
13611;SDS011;6877;51.436;6.774;2023-04-15T07:23:48;14.00;;;9.60;;
13611;SDS011;6877;51.436;6.774;2023-04-15T07:26:14;13.27;;;8.93;;
13611;SDS011;6877;51.436;6.774;2023-04-15T07:28:40;16.15;;;8.77;;
13611;SDS011;6877;51.436;6.774;2023-04-15T07:31:07;16.02;;;9.25;;
13611;SDS011;6877;51.436;6.774;2023-04-15T07:33:34;12.63;;;8.75;;
13611;SDS011;6877;51.436;6.774;2023-04-15T07:36:00;14.85;;;9.43;;
13611;SDS011;6877;51.436;6.774;2023-04-15T07:38:26;12.77;;;8.55;;
13611;SDS011;6877;51.436;6.774;2023-04-15T07:40:58;16.10;;;9.27;;
13611;SDS011;6877;51.436;6.774;2023-04-15T07:43:30;14.10;;;9.32;;
13611;SDS011;6877;51.436;6.774;2023-04-15T07:45:56;17.83;;;8.32;;
13611;SDS011;6877;51.436;6.774;2023-04-15T07:48:22;11.95;;;7.47;;
13611;SDS011;6877;51.436;6.774;2023-04-15T07:50:49;13.88;;;6.40;;
13611;SDS011;6877;51.436;6.774;2023-04-15T07:53:15;12.50;;;7.78;;
13611;SDS011;6877;51.436;6.774;2023-04-15T07:55:42;14.55;;;7.25;;
13611;SDS011;6877;51.436;6.774;2023-04-15T07:58:13;9.73;;;6.57;;
13611;SDS011;6877;51.436;6.774;2023-04-15T08:00:44;9.27;;;6.63;;
13611;SDS011;6877;51.436;6.774;2023-04-15T08:03:11;10.77;;;6.22;;
13611;SDS011;6877;51.436;6.774;2023-04-15T08:05:37;13.18;;;6.03;;
13611;SDS011;6877;51.436;6.774;2023-04-15T08:08:04;8.77;;;5.68;;
13611;SDS011;6877;51.436;6.774;2023-04-15T08:10:36;9.70;;;4.82;;
13611;SDS011;6877;51.436;6.774;2023-04-15T08:13:02;6.07;;;4.45;;
13611;SDS011;6877;51.436;6.774;2023-04-15T08:15:34;6.25;;;4.32;;
13611;SDS011;6877;51.436;6.774;2023-04-15T08:18:00;8.10;;;4.75;;
13611;SDS011;6877;51.436;6.774;2023-04-15T08:20:26;7.40;;;4.88;;
13611;SDS011;6877;51.436;6.774;2023-04-15T08:22:53;6.00;;;4.63;;
13611;SDS011;6877;51.436;6.774;2023-04-15T08:25:19;5.72;;;4.15;;
13611;SDS011;6877;51.436;6.774;2023-04-15T08:27:46;7.35;;;4.63;;
13611;SDS011;6877;51.436;6.774;2023-04-15T08:30:13;6.35;;;3.92;;
13611;SDS011;6877;51.436;6.774;2023-04-15T08:32:49;4.47;;;3.60;;
13611;SDS011;6877;51.436;6.774;2023-04-15T08:35:21;7.32;;;3.65;;
13611;SDS011;6877;51.436;6.774;2023-04-15T08:37:47;4.72;;;3.75;;
13611;SDS011;6877;51.436;6.774;2023-04-15T08:40:14;7.32;;;3.80;;
13611;SDS011;6877;51.436;6.774;2023-04-15T08:42:46;4.93;;;3.90;;
13611;SDS011;6877;51.436;6.774;2023-04-15T08:45:16;5.40;;;4.28;;
13611;SDS011;6877;51.436;6.774;2023-04-15T08:47:43;6.88;;;3.63;;
13611;SDS011;6877;51.436;6.774;2023-04-15T08:50:11;4.95;;;3.58;;
13611;SDS011;6877;51.436;6.774;2023-04-15T08:52:39;5.63;;;3.95;;
13611;SDS011;6877;51.436;6.774;2023-04-15T08:55:11;4.22;;;3.28;;
13611;SDS011;6877;51.436;6.774;2023-04-15T08:57:43;6.22;;;3.92;;
13611;SDS011;6877;51.436;6.774;2023-04-15T09:00:10;5.70;;;4.13;;
13611;SDS011;6877;51.436;6.774;2023-04-15T09:02:37;6.50;;;3.83;;
13611;SDS011;6877;51.436;6.774;2023-04-15T09:05:08;6.75;;;4.15;;
13611;SDS011;6877;51.436;6.774;2023-04-15T09:07:34;8.07;;;3.85;;
13611;SDS011;6877;51.436;6.774;2023-04-15T09:10:06;7.03;;;3.13;;
13611;SDS011;6877;51.436;6.774;2023-04-15T09:12:34;3.45;;;2.58;;
13611;SDS011;6877;51.436;6.774;2023-04-15T09:15:02;3.00;;;2.30;;
13611;SDS011;6877;51.436;6.774;2023-04-15T09:17:29;4.38;;;2.92;;
13611;SDS011;6877;51.436;6.774;2023-04-15T09:20:11;5.13;;;3.05;;
13611;SDS011;6877;51.436;6.774;2023-04-15T09:22:39;8.32;;;3.53;;
13611;SDS011;6877;51.436;6.774;2023-04-15T09:27:58;8.05;;;2.85;;
13611;SDS011;6877;51.436;6.774;2023-04-15T09:30:31;4.00;;;3.53;;
13611;SDS011;6877;51.436;6.774;2023-04-15T09:33:03;5.68;;;2.80;;
13611;SDS011;6877;51.436;6.774;2023-04-15T09:35:33;5.45;;;3.38;;
13611;SDS011;6877;51.436;6.774;2023-04-15T09:38:10;5.22;;;2.88;;
13611;SDS011;6877;51.436;6.774;2023-04-15T09:40:42;6.95;;;3.38;;
13611;SDS011;6877;51.436;6.774;2023-04-15T09:43:14;7.25;;;3.25;;
13611;SDS011;6877;51.436;6.774;2023-04-15T09:45:52;6.95;;;3.70;;
13611;SDS011;6877;51.436;6.774;2023-04-15T09:48:23;4.60;;;3.53;;
13611;SDS011;6877;51.436;6.774;2023-04-15T09:50:57;5.00;;;3.72;;
13611;SDS011;6877;51.436;6.774;2023-04-15T09:53:25;4.70;;;3.72;;
13611;SDS011;6877;51.436;6.774;2023-04-15T09:58:26;5.00;;;3.47;;
13611;SDS011;6877;51.436;6.774;2023-04-15T10:00:55;5.85;;;4.32;;
13611;SDS011;6877;51.436;6.774;2023-04-15T10:03:24;4.82;;;3.33;;
13611;SDS011;6877;51.436;6.774;2023-04-15T10:05:59;5.78;;;4.32;;
13611;SDS011;6877;51.436;6.774;2023-04-15T10:08:32;5.68;;;4.32;;
13611;SDS011;6877;51.436;6.774;2023-04-15T10:11:04;6.18;;;4.50;;
13611;SDS011;6877;51.436;6.774;2023-04-15T10:13:36;6.35;;;4.63;;
13611;SDS011;6877;51.436;6.774;2023-04-15T10:18:41;4.78;;;4.13;;
13611;SDS011;6877;51.436;6.774;2023-04-15T10:21:09;4.35;;;3.92;;
13611;SDS011;6877;51.436;6.774;2023-04-15T10:23:44;7.30;;;5.18;;
13611;SDS011;6877;51.436;6.774;2023-04-15T10:26:11;7.65;;;4.18;;
13611;SDS011;6877;51.436;6.774;2023-04-15T10:28:45;6.40;;;4.82;;
13611;SDS011;6877;51.436;6.774;2023-04-15T10:31:14;6.30;;;4.80;;
13611;SDS011;6877;51.436;6.774;2023-04-15T10:33:43;6.65;;;4.55;;
13611;SDS011;6877;51.436;6.774;2023-04-15T10:36:12;7.38;;;4.95;;
13611;SDS011;6877;51.436;6.774;2023-04-15T10:38:45;8.95;;;4.60;;
13611;SDS011;6877;51.436;6.774;2023-04-15T10:44:00;8.20;;;5.03;;
13611;SDS011;6877;51.436;6.774;2023-04-15T10:46:40;8.50;;;5.28;;
13611;SDS011;6877;51.436;6.774;2023-04-15T10:51:40;7.05;;;5.03;;
13611;SDS011;6877;51.436;6.774;2023-04-15T10:59:29;7.43;;;4.15;;
13611;SDS011;6877;51.436;6.774;2023-04-15T11:02:02;5.70;;;4.50;;
13611;SDS011;6877;51.436;6.774;2023-04-15T11:12:57;5.22;;;4.30;;
13611;SDS011;6877;51.436;6.774;2023-04-15T11:20:35;6.63;;;4.53;;
13611;SDS011;6877;51.436;6.774;2023-04-15T11:23:11;5.43;;;4.20;;
13611;SDS011;6877;51.436;6.774;2023-04-15T11:25:43;5.57;;;4.05;;
13611;SDS011;6877;51.436;6.774;2023-04-15T11:28:10;6.35;;;4.30;;
13611;SDS011;6877;51.436;6.774;2023-04-15T11:30:38;5.75;;;3.65;;
13611;SDS011;6877;51.436;6.774;2023-04-15T11:33:05;6.65;;;4.72;;
13611;SDS011;6877;51.436;6.774;2023-04-15T11:35:37;8.00;;;4.85;;
13611;SDS011;6877;51.436;6.774;2023-04-15T11:38:09;7.55;;;4.30;;
13611;SDS011;6877;51.436;6.774;2023-04-15T11:40:42;5.20;;;3.85;;
13611;SDS011;6877;51.436;6.774;2023-04-15T11:43:10;4.80;;;3.78;;
13611;SDS011;6877;51.436;6.774;2023-04-15T11:45:54;6.32;;;4.00;;
13611;SDS011;6877;51.436;6.774;2023-04-15T11:48:26;7.97;;;3.78;;
13611;SDS011;6877;51.436;6.774;2023-04-15T11:53:49;6.78;;;3.90;;
13611;SDS011;6877;51.436;6.774;2023-04-15T11:56:21;5.25;;;3.83;;
13611;SDS011;6877;51.436;6.774;2023-04-15T11:58:52;11.15;;;4.20;;
13611;SDS011;6877;51.436;6.774;2023-04-15T12:01:44;5.20;;;3.63;;
13611;SDS011;6877;51.436;6.774;2023-04-15T12:04:17;7.25;;;3.35;;
13611;SDS011;6877;51.436;6.774;2023-04-15T12:06:51;5.32;;;3.58;;
13611;SDS011;6877;51.436;6.774;2023-04-15T12:09:22;3.47;;;2.97;;
13611;SDS011;6877;51.436;6.774;2023-04-15T12:11:50;4.85;;;3.50;;
13611;SDS011;6877;51.436;6.774;2023-04-15T12:14:24;5.10;;;3.85;;
13611;SDS011;6877;51.436;6.774;2023-04-15T12:17:05;5.97;;;3.90;;
13611;SDS011;6877;51.436;6.774;2023-04-15T12:22:03;6.75;;;3.95;;
13611;SDS011;6877;51.436;6.774;2023-04-15T12:24:32;7.72;;;4.72;;
13611;SDS011;6877;51.436;6.774;2023-04-15T12:27:00;5.82;;;3.53;;
13611;SDS011;6877;51.436;6.774;2023-04-15T12:29:40;4.97;;;3.38;;
13611;SDS011;6877;51.436;6.774;2023-04-15T12:32:08;6.88;;;3.53;;
13611;SDS011;6877;51.436;6.774;2023-04-15T12:34:40;6.25;;;3.63;;
13611;SDS011;6877;51.436;6.774;2023-04-15T12:37:14;9.38;;;4.40;;
13611;SDS011;6877;51.436;6.774;2023-04-15T12:39:42;7.45;;;4.10;;
13611;SDS011;6877;51.436;6.774;2023-04-15T12:42:10;8.73;;;5.13;;
13611;SDS011;6877;51.436;6.774;2023-04-15T12:44:42;5.25;;;3.97;;
13611;SDS011;6877;51.436;6.774;2023-04-15T12:47:09;5.93;;;4.60;;
13611;SDS011;6877;51.436;6.774;2023-04-15T12:49:36;6.00;;;3.83;;
13611;SDS011;6877;51.436;6.774;2023-04-15T12:52:04;4.70;;;3.47;;
13611;SDS011;6877;51.436;6.774;2023-04-15T12:54:31;7.50;;;3.40;;
13611;SDS011;6877;51.436;6.774;2023-04-15T12:56:58;3.83;;;3.22;;
13611;SDS011;6877;51.436;6.774;2023-04-15T12:59:25;5.45;;;3.58;;
13611;SDS011;6877;51.436;6.774;2023-04-15T13:01:51;4.97;;;3.83;;
13611;SDS011;6877;51.436;6.774;2023-04-15T13:04:19;4.18;;;3.33;;
13611;SDS011;6877;51.436;6.774;2023-04-15T13:06:51;5.57;;;3.83;;
13611;SDS011;6877;51.436;6.774;2023-04-15T13:09:17;6.30;;;3.90;;
13611;SDS011;6877;51.436;6.774;2023-04-15T13:11:44;5.82;;;4.40;;
13611;SDS011;6877;51.436;6.774;2023-04-15T13:14:15;9.60;;;4.82;;
13611;SDS011;6877;51.436;6.774;2023-04-15T13:16:41;6.53;;;4.55;;
13611;SDS011;6877;51.436;6.774;2023-04-15T13:19:08;5.65;;;4.03;;
13611;SDS011;6877;51.436;6.774;2023-04-15T13:21:34;5.03;;;3.83;;
13611;SDS011;6877;51.436;6.774;2023-04-15T13:24:01;4.90;;;3.90;;
13611;SDS011;6877;51.436;6.774;2023-04-15T13:26:27;9.90;;;5.03;;
13611;SDS011;6877;51.436;6.774;2023-04-15T13:28:59;4.47;;;3.53;;
13611;SDS011;6877;51.436;6.774;2023-04-15T13:31:31;8.85;;;4.10;;
13611;SDS011;6877;51.436;6.774;2023-04-15T13:34:02;5.63;;;3.47;;
13611;SDS011;6877;51.436;6.774;2023-04-15T13:36:33;5.32;;;3.75;;
13611;SDS011;6877;51.436;6.774;2023-04-15T13:39:00;10.23;;;4.15;;
13611;SDS011;6877;51.436;6.774;2023-04-15T13:41:26;4.50;;;3.50;;
13611;SDS011;6877;51.436;6.774;2023-04-15T13:43:53;5.57;;;3.25;;
13611;SDS011;6877;51.436;6.774;2023-04-15T13:46:19;5.15;;;3.40;;
13611;SDS011;6877;51.436;6.774;2023-04-15T13:48:45;6.60;;;3.97;;
13611;SDS011;6877;51.436;6.774;2023-04-15T13:51:12;5.18;;;4.03;;
13611;SDS011;6877;51.436;6.774;2023-04-15T13:53:43;3.80;;;2.83;;
13611;SDS011;6877;51.436;6.774;2023-04-15T13:56:15;5.15;;;3.00;;
13611;SDS011;6877;51.436;6.774;2023-04-15T13:58:46;5.35;;;3.00;;
13611;SDS011;6877;51.436;6.774;2023-04-15T14:01:18;7.00;;;3.70;;
13611;SDS011;6877;51.436;6.774;2023-04-15T14:03:49;8.88;;;4.15;;
13611;SDS011;6877;51.436;6.774;2023-04-15T14:06:21;4.88;;;3.63;;
13611;SDS011;6877;51.436;6.774;2023-04-15T14:08:47;6.00;;;3.03;;
13611;SDS011;6877;51.436;6.774;2023-04-15T14:11:19;6.68;;;3.53;;
13611;SDS011;6877;51.436;6.774;2023-04-15T14:13:50;5.72;;;4.05;;
13611;SDS011;6877;51.436;6.774;2023-04-15T14:16:17;6.30;;;3.90;;
13611;SDS011;6877;51.436;6.774;2023-04-15T14:18:43;3.45;;;3.10;;
13611;SDS011;6877;51.436;6.774;2023-04-15T14:21:09;6.30;;;3.17;;
13611;SDS011;6877;51.436;6.774;2023-04-15T14:23:36;5.63;;;3.35;;
13611;SDS011;6877;51.436;6.774;2023-04-15T14:26:02;4.35;;;3.08;;
13611;SDS011;6877;51.436;6.774;2023-04-15T14:28:29;3.10;;;2.80;;
13611;SDS011;6877;51.436;6.774;2023-04-15T14:31:00;6.10;;;3.88;;
13611;SDS011;6877;51.436;6.774;2023-04-15T14:33:31;4.32;;;3.10;;
13611;SDS011;6877;51.436;6.774;2023-04-15T14:36:03;4.13;;;3.08;;
13611;SDS011;6877;51.436;6.774;2023-04-15T14:38:29;7.43;;;3.55;;
13611;SDS011;6877;51.436;6.774;2023-04-15T14:40:56;5.53;;;3.55;;
13611;SDS011;6877;51.436;6.774;2023-04-15T14:43:28;4.13;;;3.40;;
13611;SDS011;6877;51.436;6.774;2023-04-15T14:45:54;8.55;;;3.28;;
13611;SDS011;6877;51.436;6.774;2023-04-15T14:48:20;4.43;;;2.95;;
13611;SDS011;6877;51.436;6.774;2023-04-15T14:50:52;4.45;;;2.95;;
13611;SDS011;6877;51.436;6.774;2023-04-15T14:53:24;5.40;;;2.97;;
13611;SDS011;6877;51.436;6.774;2023-04-15T14:55:55;5.22;;;3.80;;
13611;SDS011;6877;51.436;6.774;2023-04-15T14:58:26;5.90;;;3.78;;
13611;SDS011;6877;51.436;6.774;2023-04-15T15:00:53;9.40;;;3.78;;
13611;SDS011;6877;51.436;6.774;2023-04-15T15:03:19;6.10;;;3.03;;
13611;SDS011;6877;51.436;6.774;2023-04-15T15:05:46;4.18;;;3.35;;
13611;SDS011;6877;51.436;6.774;2023-04-15T15:08:17;4.78;;;3.00;;
13611;SDS011;6877;51.436;6.774;2023-04-15T15:10:43;4.28;;;2.90;;
13611;SDS011;6877;51.436;6.774;2023-04-15T15:13:10;6.90;;;3.30;;
13611;SDS011;6877;51.436;6.774;2023-04-15T15:15:41;4.57;;;3.30;;
13611;SDS011;6877;51.436;6.774;2023-04-15T15:18:13;12.38;;;4.43;;
13611;SDS011;6877;51.436;6.774;2023-04-15T15:20:41;6.80;;;3.03;;
13611;SDS011;6877;51.436;6.774;2023-04-15T15:23:08;4.78;;;3.58;;
13611;SDS011;6877;51.436;6.774;2023-04-15T15:25:34;3.88;;;3.47;;
13611;SDS011;6877;51.436;6.774;2023-04-15T15:28:01;4.30;;;3.65;;
13611;SDS011;6877;51.436;6.774;2023-04-15T15:30:32;7.03;;;4.32;;
13611;SDS011;6877;51.436;6.774;2023-04-15T15:32:58;6.75;;;3.83;;
13611;SDS011;6877;51.436;6.774;2023-04-15T15:35:25;5.47;;;3.90;;